Terminal Aerodrome Forecast
Issued by NWS

Home | Current Version | Previous Version | Text Only | Print | Product List | Glossary On
Versions: 1 2 3 4 5 6 7 8 9 10 11 12 13 14 15 16 17
000
FTUS43 KDTX 252322
TAFMBS
TAF
KMBS 252322Z 2600/2624 22014G20KT P6SM SCT045 BKN060 BKN200
     FM260200 21011KT P6SM SCT040 BKN200
     FM261000 20008KT 5SM BR BKN016
     FM261600 22014KT P6SM SCT045 BKN060=

USA.gov is the U.S. government's official web portal to all federal, state and local government web resources and services.